createdAt,value
2018-06-27T00:01:58.565Z,2.27
2018-06-27T00:04:28.191Z,2.30
2018-06-27T00:06:58.706Z,2.27
2018-06-27T00:12:07.060Z,2.17
2018-06-27T00:14:36.694Z,2.50
2018-06-27T00:17:06.412Z,2.57
2018-06-27T00:19:36.111Z,2.77
2018-06-27T00:22:07.976Z,2.17
2018-06-27T00:24:38.993Z,2.10
2018-06-27T00:27:08.606Z,2.30
2018-06-27T00:29:38.139Z,2.27
2018-06-27T00:32:07.378Z,2.20
2018-06-27T00:34:36.997Z,2.03
2018-06-27T00:37:07.233Z,2.17
2018-06-27T00:39:36.801Z,2.30
2018-06-27T00:42:07.102Z,2.30
2018-06-27T00:44:36.725Z,2.40
2018-06-27T00:47:06.966Z,2.50
2018-06-27T00:49:36.584Z,2.57
2018-06-27T00:52:06.821Z,3.00
2018-06-27T00:54:36.433Z,3.93
2018-06-27T00:57:06.772Z,5.07
2018-06-27T00:59:36.398Z,4.33
2018-06-27T01:02:06.612Z,4.60
2018-06-27T01:04:36.216Z,4.33
2018-06-27T01:07:06.798Z,3.53
2018-06-27T01:09:36.402Z,4.73
2018-06-27T01:12:06.411Z,4.57
2018-06-27T01:14:36.031Z,6.23
2018-06-27T01:17:06.057Z,6.03
2018-06-27T01:19:35.671Z,5.73
2018-06-27T01:22:05.926Z,5.27
2018-06-27T01:24:35.528Z,5.43
2018-06-27T01:27:05.949Z,6.63
2018-06-27T01:29:35.605Z,5.83
2018-06-27T01:32:05.869Z,5.37
2018-06-27T01:34:35.487Z,3.60
2018-06-27T01:37:05.110Z,2.53
2018-06-27T01:39:34.758Z,2.37
2018-06-27T01:42:04.358Z,2.47
2018-06-27T01:44:34.023Z,2.43
2018-06-27T01:47:03.617Z,2.60
2018-06-27T01:49:33.221Z,2.37
2018-06-27T01:52:02.865Z,2.40
2018-06-27T01:54:32.505Z,2.80
2018-06-27T01:57:02.714Z,2.40
2018-06-27T01:59:32.311Z,2.50
2018-06-27T02:02:02.686Z,2.03
2018-06-27T02:04:32.283Z,2.00
2018-06-27T02:07:02.870Z,2.20
2018-06-27T02:09:32.458Z,2.70
2018-06-27T02:12:02.388Z,2.53
2018-06-27T02:14:31.971Z,2.37
2018-06-27T02:17:01.696Z,2.80
2018-06-27T02:19:31.322Z,2.40
2018-06-27T02:22:00.909Z,2.63
2018-06-27T02:24:30.494Z,2.20
2018-06-27T02:27:00.121Z,2.37
2018-06-27T02:29:29.682Z,2.60
2018-06-27T02:31:59.280Z,2.47
2018-06-27T02:34:28.891Z,2.73
2018-06-27T02:36:58.506Z,2.70
2018-06-27T02:39:28.192Z,2.23
2018-06-27T02:41:57.753Z,2.53
2018-06-27T02:44:27.340Z,2.17
2018-06-27T02:46:57.018Z,2.27
2018-06-27T02:49:26.635Z,2.93
2018-06-27T02:51:56.393Z,2.30
2018-06-27T02:54:26.039Z,2.20
2018-06-27T02:56:55.624Z,2.30
2018-06-27T02:59:25.247Z,2.60
2018-06-27T03:01:54.844Z,2.70
2018-06-27T03:04:24.456Z,2.40
2018-06-27T03:06:54.135Z,2.57
2018-06-27T03:09:23.758Z,2.53
2018-06-27T03:11:53.382Z,2.63
2018-06-27T03:14:23.049Z,2.57
2018-06-27T03:16:52.740Z,2.30
2018-06-27T03:19:22.325Z,2.97
2018-06-27T03:21:51.908Z,2.57
2018-06-27T03:24:21.540Z,2.67
2018-06-27T03:26:51.166Z,2.50
2018-06-27T03:29:20.476Z,2.80
2018-06-27T03:31:50.166Z,3.07
2018-06-27T03:34:19.828Z,2.90
2018-06-27T03:36:50.103Z,3.00
2018-06-27T03:39:19.755Z,2.80
2018-06-27T03:41:49.414Z,2.93
2018-06-27T03:44:18.963Z,3.07
2018-06-27T03:46:48.701Z,2.70
2018-06-27T03:49:18.333Z,2.73
2018-06-27T03:51:47.958Z,2.50
2018-06-27T03:54:17.555Z,2.87
2018-06-27T03:56:47.124Z,2.93
2018-06-27T03:59:16.734Z,2.87
2018-06-27T04:01:46.795Z,2.87
2018-06-27T04:04:16.543Z,2.93
2018-06-27T04:06:46.249Z,2.40
2018-06-27T04:09:15.817Z,2.37
2018-06-27T04:11:45.892Z,2.57
2018-06-27T04:14:15.492Z,2.57
2018-06-27T04:16:45.946Z,2.17
2018-06-27T04:19:15.540Z,2.57
2018-06-27T04:21:45.865Z,2.43
2018-06-27T04:24:26.298Z,3.00
2018-06-27T04:27:08.636Z,2.53
2018-06-27T04:29:51.639Z,2.90
2018-06-27T04:32:33.117Z,2.93
2018-06-27T04:35:13.297Z,2.57
2018-06-27T04:37:53.871Z,2.80
2018-06-27T04:40:35.462Z,2.57
2018-06-27T04:43:13.916Z,2.67
2018-06-27T04:45:50.686Z,2.40
2018-06-27T04:48:20.615Z,2.47
2018-06-27T04:50:50.337Z,2.53
2018-06-27T04:53:19.972Z,2.83
2018-06-27T04:55:50.000Z,2.20
2018-06-27T04:58:19.679Z,2.60
2018-06-27T05:00:49.302Z,2.47
2018-06-27T05:03:18.989Z,2.67
2018-06-27T05:05:48.652Z,2.63
2018-06-27T05:08:18.621Z,2.50
2018-06-27T05:10:48.728Z,3.07
2018-06-27T05:13:18.415Z,2.73
2018-06-27T05:15:48.030Z,2.73
2018-06-27T05:18:17.673Z,3.03
2018-06-27T05:20:47.273Z,2.70
2018-06-27T05:23:16.890Z,2.60
2018-06-27T05:25:47.067Z,3.10
2018-06-27T05:28:16.958Z,2.87
2018-06-27T05:30:46.610Z,2.77
2018-06-27T05:33:16.487Z,3.10
2018-06-27T05:35:46.137Z,3.30
2018-06-27T05:38:16.903Z,3.13
2018-06-27T05:40:47.392Z,3.00
2018-06-27T05:43:17.255Z,2.77
2018-06-27T05:45:47.051Z,2.90
2018-06-27T05:48:17.165Z,2.87
2018-06-27T05:50:46.798Z,2.77
2018-06-27T05:53:16.955Z,2.50
2018-06-27T05:55:47.423Z,3.10
2018-06-27T05:58:17.717Z,3.53
2018-06-27T06:00:47.233Z,2.77
2018-06-27T06:03:17.418Z,3.30
2018-06-27T06:05:47.995Z,3.27
2018-06-27T06:08:18.369Z,3.00
2018-06-27T06:10:48.462Z,4.23
2018-06-27T06:13:18.660Z,3.33
2018-06-27T06:15:48.270Z,2.90
2018-06-27T06:18:18.715Z,3.27
2018-06-27T06:20:48.336Z,3.23
2018-06-27T06:23:19.020Z,3.10
2018-06-27T06:25:49.150Z,2.90
2018-06-27T06:28:19.134Z,3.50
2018-06-27T06:30:48.741Z,2.50
2018-06-27T06:33:18.985Z,2.70
2018-06-27T06:35:48.619Z,3.13
2018-06-27T06:38:19.126Z,3.03
2018-06-27T06:40:49.142Z,2.80
2018-06-27T06:43:19.430Z,2.90
2018-06-27T06:45:49.057Z,2.80
2018-06-27T06:48:19.531Z,2.80
2018-06-27T06:50:49.136Z,2.90
2018-06-27T06:53:20.026Z,3.20
2018-06-27T06:55:49.880Z,2.80
2018-06-27T06:58:20.062Z,2.77
2018-06-27T07:00:49.722Z,2.63
2018-06-27T07:03:19.962Z,2.77
2018-06-27T07:05:49.775Z,2.70
2018-06-27T07:08:20.180Z,2.73
2018-06-27T07:10:51.773Z,3.40
2018-06-27T07:13:21.817Z,2.90
2018-06-27T07:15:51.486Z,2.73
2018-06-27T07:18:21.780Z,2.77
2018-06-27T07:20:51.451Z,2.93
2018-06-27T07:23:22.051Z,2.63
2018-06-27T07:25:51.696Z,2.67
2018-06-27T07:28:22.262Z,2.33
2018-06-27T07:30:51.968Z,2.57
2018-06-27T07:33:22.315Z,2.33
2018-06-27T07:35:51.945Z,2.27
2018-06-27T07:38:22.488Z,1.93
2018-06-27T07:40:52.609Z,2.30
2018-06-27T07:43:23.313Z,2.50
2018-06-27T07:45:52.919Z,2.40
2018-06-27T07:48:23.732Z,2.47
2018-06-27T07:50:53.399Z,2.40
2018-06-27T07:53:23.868Z,2.07
2018-06-27T07:55:53.511Z,2.20
2018-06-27T07:58:24.209Z,2.23
2018-06-27T08:00:53.905Z,2.53
2018-06-27T08:03:24.422Z,2.13
2018-06-27T08:05:54.119Z,2.47
2018-06-27T08:08:24.252Z,2.43
2018-06-27T08:10:53.865Z,2.23
2018-06-27T08:13:24.447Z,2.50
2018-06-27T08:15:54.081Z,2.23
2018-06-27T08:18:24.344Z,2.20
2018-06-27T08:20:53.956Z,2.43
2018-06-27T08:23:24.595Z,2.47
2018-06-27T08:25:54.223Z,2.27
2018-06-27T08:28:24.952Z,2.63
2018-06-27T08:30:54.528Z,2.43
2018-06-27T08:33:24.988Z,2.63
2018-06-27T08:35:54.650Z,2.40
2018-06-27T08:38:24.947Z,2.20
2018-06-27T08:40:54.603Z,2.07
2018-06-27T08:43:25.161Z,2.30
2018-06-27T08:45:54.972Z,2.20
2018-06-27T08:48:25.457Z,2.30
2018-06-27T08:50:55.707Z,2.00
2018-06-27T08:53:26.508Z,2.20
2018-06-27T08:55:56.137Z,2.37
2018-06-27T08:58:26.671Z,2.23
2018-06-27T09:00:56.288Z,2.00
2018-06-27T09:03:26.889Z,2.13
2018-06-27T09:05:56.486Z,2.10
2018-06-27T09:08:26.937Z,2.30
2018-06-27T09:10:56.477Z,2.33
2018-06-27T09:13:26.509Z,2.00
2018-06-27T09:15:56.223Z,1.90
2018-06-27T09:18:26.404Z,2.30
2018-06-27T09:20:55.987Z,2.10
2018-06-27T09:23:26.214Z,2.13
2018-06-27T09:25:55.823Z,2.20
2018-06-27T09:28:26.069Z,2.30
2018-06-27T09:30:55.685Z,2.40
2018-06-27T09:33:25.595Z,1.90
2018-06-27T09:35:55.161Z,1.87
2018-06-27T09:38:25.060Z,2.07
2018-06-27T09:40:54.754Z,2.20
2018-06-27T09:43:24.484Z,2.00
2018-06-27T09:45:54.222Z,1.97
2018-06-27T09:48:23.829Z,2.00
2018-06-27T09:50:53.457Z,2.20
2018-06-27T09:53:22.725Z,2.10
2018-06-27T09:55:52.407Z,2.00
2018-06-27T09:58:21.979Z,1.90
2018-06-27T10:00:51.246Z,2.43
2018-06-27T10:03:20.834Z,2.07
2018-06-27T10:05:50.424Z,2.30
2018-06-27T10:08:20.043Z,2.43
2018-06-27T10:10:50.059Z,1.93
2018-06-27T10:13:19.649Z,2.30
2018-06-27T10:15:49.250Z,2.33
2018-06-27T10:18:18.890Z,1.90
2018-06-27T10:20:48.488Z,1.80
2018-06-27T10:23:18.091Z,1.70
2018-06-27T10:25:48.425Z,2.03
2018-06-27T10:28:18.006Z,2.27
2018-06-27T10:30:50.158Z,2.20
2018-06-27T10:33:19.790Z,1.90
2018-06-27T10:35:49.364Z,1.80
2018-06-27T10:38:19.020Z,2.23
2018-06-27T10:40:49.384Z,1.83
2018-06-27T10:43:18.685Z,2.47
2018-06-27T10:45:48.302Z,1.90
2018-06-27T10:48:17.932Z,1.90
2018-06-27T10:50:47.529Z,2.00
2018-06-27T10:53:17.191Z,1.83
2018-06-27T10:55:47.676Z,1.87
2018-06-27T10:58:17.266Z,1.80
2018-06-27T11:00:46.869Z,1.80
2018-06-27T11:03:16.490Z,1.80
2018-06-27T11:05:46.058Z,1.77
2018-06-27T11:08:15.636Z,2.10
2018-06-27T11:10:46.075Z,2.13
2018-06-27T11:13:15.649Z,2.20
2018-06-27T11:15:45.340Z,2.03
2018-06-27T11:18:14.981Z,1.90
2018-06-27T11:20:44.675Z,2.07
2018-06-27T11:23:14.460Z,2.20
2018-06-27T11:25:45.307Z,1.80
2018-06-27T11:28:14.919Z,1.70
2018-06-27T11:30:45.106Z,1.93
2018-06-27T11:33:14.752Z,1.80
2018-06-27T11:35:44.339Z,1.97
2018-06-27T11:38:13.913Z,1.90
2018-06-27T11:40:44.233Z,2.20
2018-06-27T11:43:13.875Z,1.70
2018-06-27T11:45:44.397Z,1.90
2018-06-27T11:48:14.025Z,1.83
2018-06-27T11:50:43.721Z,1.93
2018-06-27T11:53:13.484Z,1.73
2018-06-27T11:55:43.840Z,1.63
2018-06-27T11:58:13.471Z,1.90
2018-06-27T12:00:43.744Z,1.60
2018-06-27T12:03:13.364Z,1.80
2018-06-27T12:05:42.972Z,1.60
2018-06-27T12:08:12.573Z,1.60
2018-06-27T12:10:42.316Z,1.97
2018-06-27T12:13:11.922Z,1.93
2018-06-27T12:15:42.615Z,2.00
2018-06-27T12:18:12.271Z,1.93
2018-06-27T12:20:41.858Z,1.80
2018-06-27T12:23:11.483Z,2.07
2018-06-27T12:25:41.300Z,1.93
2018-06-27T12:28:10.937Z,1.87
2018-06-27T12:30:42.027Z,1.77
2018-06-27T12:33:11.736Z,2.07
2018-06-27T12:35:41.400Z,2.10
2018-06-27T12:38:11.088Z,1.77
2018-06-27T12:40:40.676Z,1.97
2018-06-27T12:43:10.366Z,1.97
2018-06-27T12:45:41.600Z,1.80
2018-06-27T12:48:11.215Z,2.13
2018-06-27T12:50:40.822Z,1.80
2018-06-27T12:53:10.404Z,1.83
2018-06-27T12:55:40.153Z,2.17
2018-06-27T12:58:09.745Z,1.97
2018-06-27T13:00:40.715Z,1.50
2018-06-27T13:03:10.340Z,2.10
2018-06-27T13:05:39.988Z,1.83
2018-06-27T13:08:09.618Z,1.87
2018-06-27T13:10:39.711Z,2.30
2018-06-27T13:13:09.305Z,1.70
2018-06-27T13:15:41.038Z,2.00
2018-06-27T13:18:10.629Z,1.90
2018-06-27T13:20:40.677Z,1.70
2018-06-27T13:23:10.336Z,1.70
2018-06-27T13:25:41.099Z,1.93
2018-06-27T13:28:10.971Z,2.50
2018-06-27T13:30:43.245Z,1.67
2018-06-27T13:33:12.918Z,2.10
2018-06-27T13:35:42.833Z,2.00
2018-06-27T13:38:12.483Z,1.97
2018-06-27T13:40:42.414Z,1.97
2018-06-27T13:43:12.033Z,2.07
2018-06-27T13:45:43.803Z,1.80
2018-06-27T13:48:13.376Z,1.93
2018-06-27T13:50:43.206Z,1.93
2018-06-27T13:53:12.982Z,2.17
2018-06-27T13:55:43.423Z,1.93
2018-06-27T13:58:13.072Z,2.00
2018-06-27T14:00:44.474Z,1.90
2018-06-27T14:03:14.112Z,1.47
2018-06-27T14:05:44.081Z,1.70
2018-06-27T14:08:13.678Z,1.80
2018-06-27T14:10:44.362Z,2.00
2018-06-27T14:13:13.969Z,2.10
2018-06-27T14:15:45.255Z,1.70
2018-06-27T14:18:14.882Z,1.50
2018-06-27T14:20:44.695Z,1.60
2018-06-27T14:23:14.294Z,1.67
2018-06-27T14:25:44.532Z,1.90
2018-06-27T14:28:14.130Z,1.70
2018-06-27T14:30:45.721Z,1.87
2018-06-27T14:33:15.365Z,1.90
2018-06-27T14:35:45.241Z,2.00
2018-06-27T14:38:14.837Z,2.07
2018-06-27T14:40:45.583Z,1.90
2018-06-27T14:43:15.394Z,1.80
2018-06-27T14:45:46.065Z,1.97
2018-06-27T14:48:15.773Z,1.90
2018-06-27T14:50:45.989Z,2.00
2018-06-27T14:53:15.578Z,2.10
2018-06-27T14:55:46.537Z,2.00
2018-06-27T14:58:16.194Z,1.87
2018-06-27T15:00:53.989Z,1.90
2018-06-27T15:03:23.785Z,2.10
2018-06-27T15:05:53.541Z,1.80
2018-06-27T15:08:23.368Z,1.87
2018-06-27T15:10:53.383Z,1.80
2018-06-27T15:13:23.011Z,1.97
2018-06-27T15:15:52.653Z,2.00
2018-06-27T15:18:22.522Z,1.97
2018-06-27T15:20:52.415Z,1.90
2018-06-27T15:23:22.096Z,1.80
2018-06-27T15:25:52.216Z,1.90
2018-06-27T15:28:21.849Z,2.07
2018-06-27T15:30:51.616Z,2.00
2018-06-27T15:33:21.353Z,1.70
2018-06-27T15:35:51.335Z,1.60
2018-06-27T15:38:21.618Z,1.73
2018-06-27T15:40:52.120Z,1.80
2018-06-27T15:43:22.147Z,2.00
2018-06-27T15:45:52.267Z,1.80
2018-06-27T15:48:22.167Z,1.83
2018-06-27T15:50:52.239Z,2.37
2018-06-27T15:53:22.147Z,2.30
2018-06-27T15:55:54.246Z,2.20
2018-06-27T15:58:24.341Z,1.90
2018-06-27T16:03:27.636Z,1.97
2018-06-27T16:05:58.044Z,1.70
2018-06-27T16:08:28.221Z,1.80
2018-06-27T16:10:58.056Z,1.80
2018-06-27T16:13:27.925Z,2.03
2018-06-27T16:15:57.853Z,2.13
2018-06-27T16:18:27.853Z,2.50
2018-06-27T16:20:58.122Z,1.77
2018-06-27T16:23:38.085Z,2.00
2018-06-27T16:26:08.158Z,1.97
2018-06-27T16:28:48.245Z,1.57
2018-06-27T16:31:17.963Z,2.13
2018-06-27T16:33:48.802Z,1.90
2018-06-27T16:36:18.893Z,1.90
2018-06-27T16:38:49.685Z,1.73
2018-06-27T16:41:19.638Z,1.90
2018-06-27T16:43:50.405Z,1.90
2018-06-27T16:46:21.596Z,1.93
2018-06-27T16:48:52.009Z,1.90
2018-06-27T16:51:23.414Z,1.80
2018-06-27T16:53:53.396Z,1.87
2018-06-27T16:56:24.761Z,2.07
2018-06-27T16:58:55.324Z,1.87
2018-06-27T17:01:26.177Z,1.80
2018-06-27T17:03:56.449Z,1.93
2018-06-27T17:06:26.702Z,1.80
2018-06-27T17:08:56.566Z,1.70
2018-06-27T17:11:26.381Z,1.83
2018-06-27T17:13:57.948Z,2.03
2018-06-27T17:16:27.703Z,2.10
2018-06-27T17:18:57.837Z,1.83
2018-06-27T17:21:29.577Z,2.10
2018-06-27T17:23:59.538Z,2.43
2018-06-27T17:26:29.592Z,2.10
2018-06-27T17:28:59.410Z,1.93
2018-06-27T17:31:29.728Z,1.70
2018-06-27T17:33:59.729Z,1.70
2018-06-27T17:36:29.329Z,2.23
2018-06-27T17:38:59.512Z,2.27
2018-06-27T17:41:29.763Z,1.87
2018-06-27T17:43:59.748Z,2.10
2018-06-27T17:46:29.533Z,1.80
2018-06-27T17:48:59.365Z,2.10
2018-06-27T17:51:29.795Z,2.20
2018-06-27T17:54:00.090Z,2.00
2018-06-27T17:56:30.070Z,1.80
2018-06-27T17:59:00.014Z,2.10
2018-06-27T18:01:29.748Z,1.93
2018-06-27T18:03:59.388Z,2.37
2018-06-27T18:06:29.079Z,1.97
2018-06-27T18:08:58.841Z,1.80
2018-06-27T18:11:28.470Z,1.53
2018-06-27T18:13:58.160Z,2.10
2018-06-27T18:16:27.949Z,2.00
2018-06-27T18:18:57.825Z,1.90
2018-06-27T18:21:28.219Z,1.97
2018-06-27T18:23:58.103Z,2.07
2018-06-27T18:26:28.073Z,2.00
2018-06-27T18:28:57.953Z,1.70
2018-06-27T18:31:27.754Z,2.10
2018-06-27T18:34:10.085Z,1.83
2018-06-27T18:36:43.605Z,2.13
2018-06-27T18:39:27.474Z,1.90
2018-06-27T18:41:58.906Z,2.10
2018-06-27T18:44:31.399Z,2.10
2018-06-27T18:47:01.678Z,1.97
2018-06-27T18:49:33.130Z,2.20
2018-06-27T18:52:03.276Z,1.90
2018-06-27T18:54:33.306Z,1.93
2018-06-27T18:57:03.557Z,1.77
2018-06-27T18:59:33.588Z,1.80
2018-06-27T19:02:03.696Z,2.47
2018-06-27T19:04:33.820Z,2.07
2018-06-27T19:07:04.953Z,1.97
2018-06-27T19:09:36.155Z,2.10
2018-06-27T19:12:06.645Z,1.97
2018-06-27T19:14:36.766Z,2.60
2018-06-27T19:17:10.031Z,2.10
2018-06-27T19:19:40.171Z,1.67
2018-06-27T19:22:19.995Z,2.00
2018-06-27T19:24:51.188Z,1.90
2018-06-27T19:27:21.231Z,2.20
2018-06-27T19:29:51.311Z,1.93
2018-06-27T19:32:21.254Z,2.13
2018-06-27T19:34:51.648Z,1.70
2018-06-27T19:37:21.644Z,1.60
2018-06-27T19:39:51.846Z,2.23
2018-06-27T19:42:21.831Z,2.17
2018-06-27T19:44:51.840Z,2.00
2018-06-27T19:47:22.000Z,2.23
2018-06-27T19:49:52.391Z,1.90
2018-06-27T19:52:22.282Z,1.80
2018-06-27T19:54:52.156Z,1.90
2018-06-27T19:57:22.165Z,2.10
2018-06-27T19:59:52.181Z,2.30
2018-06-27T20:02:22.504Z,1.93
2018-06-27T20:04:53.596Z,2.10
2018-06-27T20:07:23.978Z,2.00
2018-06-27T20:09:53.865Z,2.03
2018-06-27T20:12:23.917Z,2.00
2018-06-27T20:14:53.842Z,2.40
2018-06-27T20:17:23.507Z,2.20
2018-06-27T20:19:54.751Z,2.30
2018-06-27T20:22:24.758Z,2.67
2018-06-27T20:24:54.744Z,2.50
2018-06-27T20:27:24.615Z,2.30
2018-06-27T20:29:54.328Z,2.30
2018-06-27T20:32:24.321Z,2.40
2018-06-27T20:34:54.964Z,2.43
2018-06-27T20:37:25.040Z,2.30
2018-06-27T20:39:55.022Z,2.30
2018-06-27T20:42:24.877Z,2.20
2018-06-27T20:44:54.556Z,2.57
2018-06-27T20:47:24.252Z,2.40
2018-06-27T20:49:54.378Z,2.50
2018-06-27T20:52:24.081Z,2.90
2018-06-27T20:54:53.767Z,2.40
2018-06-27T20:57:23.783Z,2.50
2018-06-27T20:59:53.843Z,2.43
2018-06-27T21:02:23.879Z,2.40
2018-06-27T21:04:54.146Z,2.20
2018-06-27T21:07:23.937Z,2.27
2018-06-27T21:09:53.550Z,2.47
2018-06-27T21:12:23.417Z,2.40
2018-06-27T21:14:53.571Z,2.10
2018-06-27T21:17:23.423Z,2.13
2018-06-27T21:19:53.759Z,2.43
2018-06-27T21:22:23.448Z,2.63
2018-06-27T21:24:53.112Z,2.20
2018-06-27T21:27:22.746Z,2.33
2018-06-27T21:29:52.425Z,2.27
2018-06-27T21:32:22.033Z,2.33
2018-06-27T21:34:52.153Z,2.30
2018-06-27T21:37:21.749Z,2.03
2018-06-27T21:39:51.344Z,2.17
2018-06-27T21:42:21.027Z,2.10
2018-06-27T21:44:50.691Z,2.60
2018-06-27T21:47:20.501Z,2.23
2018-06-27T21:49:51.210Z,2.50
2018-06-27T21:52:20.802Z,2.60
2018-06-27T21:54:50.446Z,2.77
2018-06-27T21:57:20.084Z,2.33
2018-06-27T21:59:49.770Z,2.57
2018-06-27T22:02:19.367Z,2.30
2018-06-27T22:04:51.372Z,2.77
2018-06-27T22:07:21.039Z,2.70
2018-06-27T22:09:50.695Z,2.80
2018-06-27T22:12:20.304Z,2.40
2018-06-27T22:14:49.936Z,2.37
2018-06-27T22:17:19.543Z,2.50
2018-06-27T22:19:50.305Z,2.90
2018-06-27T22:22:19.884Z,2.50
2018-06-27T22:24:49.517Z,2.40
2018-06-27T22:27:19.145Z,3.17
2018-06-27T22:29:48.833Z,3.00
2018-06-27T22:32:18.461Z,2.80
2018-06-27T22:34:48.976Z,2.73
2018-06-27T22:37:18.686Z,2.57
2018-06-27T22:39:48.367Z,2.67
2018-06-27T22:42:17.996Z,2.87
2018-06-27T22:44:47.732Z,2.97
2018-06-27T22:47:17.005Z,2.80
2018-06-27T22:49:47.903Z,2.77
2018-06-27T22:52:17.609Z,2.77
2018-06-27T22:54:47.240Z,2.93
2018-06-27T22:57:16.888Z,2.70
2018-06-27T22:59:46.488Z,2.77
2018-06-27T23:02:16.278Z,3.57
2018-06-27T23:04:46.818Z,2.90
2018-06-27T23:07:16.450Z,2.63
2018-06-27T23:09:46.089Z,2.87
2018-06-27T23:12:16.200Z,3.27
2018-06-27T23:14:45.820Z,2.90
2018-06-27T23:17:15.969Z,3.20
2018-06-27T23:19:45.948Z,2.47
2018-06-27T23:22:32.296Z,2.80
2018-06-27T23:25:01.906Z,2.73
2018-06-27T23:27:31.224Z,2.50
2018-06-27T23:30:01.067Z,2.90
2018-06-27T23:32:30.688Z,2.50
2018-06-27T23:35:00.391Z,2.50
2018-06-27T23:37:30.004Z,2.83
2018-06-27T23:39:59.738Z,3.43
2018-06-27T23:42:29.478Z,3.37
2018-06-27T23:44:59.057Z,2.87
2018-06-27T23:47:28.742Z,3.00
2018-06-27T23:49:58.367Z,2.77
2018-06-27T23:52:28.315Z,2.93
2018-06-27T23:54:58.703Z,3.13
2018-06-27T23:57:28.408Z,3.00
2018-06-27T23:59:58.035Z,2.90
